createdAt,value
2023-05-02T00:00:28.910Z,2.8
2023-05-02T00:01:36.014Z,2.8
2023-05-02T00:02:43.221Z,2.8
2023-05-02T00:03:50.322Z,2.7
2023-05-02T00:06:03.934Z,2.7
2023-05-02T00:07:10.984Z,2.8
2023-05-02T00:08:18.142Z,2.7
2023-05-02T00:09:25.227Z,2.7
2023-05-02T00:10:32.295Z,2.7
2023-05-02T00:11:38.972Z,2.7
2023-05-02T00:12:45.991Z,2.7
2023-05-02T00:13:53.126Z,2.7
2023-05-02T00:15:00.250Z,2.7
2023-05-02T00:16:07.440Z,2.7
2023-05-02T00:17:14.118Z,2.6
2023-05-02T00:18:21.009Z,2.6
2023-05-02T00:19:28.163Z,2.5
2023-05-02T00:20:35.243Z,2.5
2023-05-02T00:21:42.316Z,2.5
2023-05-02T00:22:48.978Z,2.4
2023-05-02T00:23:56.030Z,2.4
2023-05-02T00:25:03.095Z,2.4
2023-05-02T00:26:10.245Z,2.4
2023-05-02T00:27:17.343Z,2.4
2023-05-02T00:28:23.899Z,2.4
2023-05-02T00:29:30.992Z,2.3
2023-05-02T00:30:38.166Z,2.3
2023-05-02T00:31:45.298Z,2.3
2023-05-02T00:32:52.384Z,2.3
2023-05-02T00:33:59.091Z,2.3
2023-05-02T00:35:06.066Z,2.3
2023-05-02T00:36:13.115Z,2.3
2023-05-02T00:37:20.246Z,2.3
2023-05-02T00:38:27.380Z,2.2
2023-05-02T00:39:33.897Z,2.2
2023-05-02T00:40:41.052Z,2.2
2023-05-02T00:41:48.158Z,2.2
2023-05-02T00:42:55.372Z,2.1
2023-05-02T00:44:02.382Z,2.1
2023-05-02T00:45:09.023Z,2.1
2023-05-02T00:46:16.110Z,2.1
2023-05-02T00:47:23.206Z,2.1
2023-05-02T00:48:30.293Z,2
2023-05-02T00:49:37.371Z,1.9
2023-05-02T00:50:43.941Z,1.9
2023-05-02T00:51:51.042Z,1.9
2023-05-02T00:52:58.214Z,1.9
2023-05-02T00:54:05.347Z,1.9
2023-05-02T00:55:12.335Z,1.8
2023-05-02T00:56:18.954Z,1.8
2023-05-02T00:57:26.065Z,1.8
2023-05-02T00:58:33.194Z,1.8
2023-05-02T00:59:40.315Z,1.8
2023-05-02T01:00:47.409Z,1.7
2023-05-02T01:01:54.006Z,1.7
2023-05-02T01:03:01.162Z,1.7
2023-05-02T01:04:08.390Z,1.7
2023-05-02T01:05:15.344Z,1.7
2023-05-02T01:06:22.449Z,1.7
2023-05-02T01:07:28.981Z,1.7
2023-05-02T01:09:43.257Z,1.6
2023-05-02T01:10:50.273Z,1.6
2023-05-02T01:11:57.429Z,1.6
2023-05-02T01:14:11.102Z,1.6
2023-05-02T01:15:18.192Z,1.5
2023-05-02T01:16:25.368Z,1.5
2023-05-02T01:17:32.622Z,1.5
2023-05-02T01:18:39.029Z,1.5
2023-05-02T01:19:46.098Z,1.5
2023-05-02T01:20:53.207Z,1.5
2023-05-02T01:22:00.315Z,1.5
2023-05-02T01:23:07.409Z,1.4
2023-05-02T01:24:14.083Z,1.4
2023-05-02T01:25:21.097Z,1.3
2023-05-02T01:26:28.202Z,1.3
2023-05-02T01:27:35.338Z,1.3
2023-05-02T01:28:42.463Z,1.3
2023-05-02T01:29:49.107Z,1.3
2023-05-02T01:30:56.135Z,1.3
2023-05-02T01:32:03.320Z,1.3
2023-05-02T01:33:10.431Z,1.2
2023-05-02T01:34:17.417Z,1.2
2023-05-02T01:35:23.999Z,1.1
2023-05-02T01:36:31.095Z,1.1
2023-05-02T01:37:38.245Z,1.1
2023-05-02T01:38:45.378Z,1.1
2023-05-02T01:39:52.447Z,1.1
2023-05-02T01:40:59.067Z,1.2
2023-05-02T01:42:08.547Z,1.2
2023-05-02T01:43:13.279Z,1.2
2023-05-02T01:44:20.352Z,1.2
2023-05-02T01:45:26.950Z,1.2
2023-05-02T01:46:34.012Z,1.2
2023-05-02T01:47:41.127Z,1.2
2023-05-02T01:48:48.270Z,1.2
2023-05-02T01:49:55.347Z,1.2
2023-05-02T01:51:01.906Z,1.2
2023-05-02T01:52:09.010Z,1.2
2023-05-02T01:53:16.157Z,1.2
2023-05-02T01:54:23.294Z,1.2
2023-05-02T01:55:30.321Z,1.2
2023-05-02T01:56:36.992Z,1.2
2023-05-02T01:57:44.002Z,1.2
2023-05-02T01:58:51.192Z,1.2
2023-05-02T01:59:58.530Z,1.2
2023-05-02T02:01:05.925Z,1.1
2023-05-02T02:02:11.942Z,1.1
2023-05-02T02:03:19.086Z,1.1
2023-05-02T02:04:26.280Z,1.1
2023-05-02T02:05:33.223Z,1.1
2023-05-02T02:06:40.520Z,1.2
2023-05-02T02:07:46.953Z,1.1
2023-05-02T02:08:54.078Z,1.1
2023-05-02T02:10:01.421Z,1.1
2023-05-02T02:11:08.307Z,1.1
2023-05-02T02:13:21.954Z,1.1
2023-05-02T02:14:29.073Z,1.1
2023-05-02T02:15:36.208Z,1
2023-05-02T02:16:43.297Z,1
2023-05-02T02:17:50.492Z,1
2023-05-02T02:18:57.055Z,1
2023-05-02T02:20:04.065Z,1
2023-05-02T02:21:11.199Z,1
2023-05-02T02:22:18.321Z,1.1
2023-05-02T02:23:25.430Z,1.1
2023-05-02T02:24:31.974Z,1.1
2023-05-02T02:25:39.071Z,1.1
2023-05-02T02:26:46.176Z,1.2
2023-05-02T02:27:53.253Z,1.2
2023-05-02T02:29:00.452Z,1.2
2023-05-02T02:30:07.034Z,1.2
2023-05-02T02:31:14.135Z,1.2
2023-05-02T02:32:21.164Z,1.2
2023-05-02T02:33:28.330Z,1.3
2023-05-02T02:34:35.532Z,1.3
2023-05-02T02:35:41.962Z,1.3
2023-05-02T02:36:49.123Z,1.3
2023-05-02T02:37:56.199Z,1.3
2023-05-02T02:39:03.374Z,1.3
2023-05-02T02:40:10.414Z,1.3
2023-05-02T02:41:17.008Z,1.3
2023-05-02T02:42:24.101Z,1.3
2023-05-02T02:43:31.250Z,1.4
2023-05-02T02:44:38.340Z,1.4
2023-05-02T02:45:45.439Z,1.4
2023-05-02T02:46:52.041Z,1.4
2023-05-02T02:47:59.273Z,1.4
2023-05-02T02:49:06.245Z,1.4
2023-05-02T02:50:13.290Z,1.4
2023-05-02T02:51:20.398Z,1.4
2023-05-02T02:52:27.008Z,1.5
2023-05-02T02:53:34.157Z,1.4
2023-05-02T02:54:41.279Z,1.4
2023-05-02T02:55:48.329Z,1.5
2023-05-02T02:56:55.493Z,1.5
2023-05-02T02:58:02.023Z,1.5
2023-05-02T02:59:09.157Z,1.5
2023-05-02T03:00:16.239Z,1.5
2023-05-02T03:01:23.451Z,1.4
2023-05-02T03:02:30.460Z,1.5
2023-05-02T03:03:37.118Z,1.5
2023-05-02T03:04:44.161Z,1.5
2023-05-02T03:05:51.326Z,1.5
2023-05-02T03:06:58.396Z,1.5
2023-05-02T03:08:05.455Z,1.4
2023-05-02T03:09:12.039Z,1.5
2023-05-02T03:10:19.150Z,1.5
2023-05-02T03:11:27.672Z,1.5
2023-05-02T03:12:33.347Z,1.5
2023-05-02T03:13:40.474Z,1.5
2023-05-02T03:14:47.131Z,1.5
2023-05-02T03:17:01.220Z,1.5
2023-05-02T03:18:08.454Z,1.5
2023-05-02T03:19:15.497Z,1.5
2023-05-02T03:20:22.095Z,1.6
2023-05-02T03:21:29.167Z,1.6
2023-05-02T03:22:36.307Z,1.6
2023-05-02T03:23:43.374Z,1.6
2023-05-02T03:24:50.460Z,1.6
2023-05-02T03:25:57.110Z,1.6
2023-05-02T03:27:04.178Z,1.6
2023-05-02T03:28:11.233Z,1.6
2023-05-02T03:29:18.374Z,1.6
2023-05-02T03:30:25.601Z,1.7
2023-05-02T03:31:32.133Z,1.7
2023-05-02T03:32:39.295Z,1.7
2023-05-02T03:33:46.322Z,1.7
2023-05-02T03:34:53.442Z,1.7
2023-05-02T03:36:00.459Z,1.6
2023-05-02T03:37:07.080Z,1.6
2023-05-02T03:38:14.146Z,1.6
2023-05-02T03:39:21.253Z,1.6
2023-05-02T03:40:28.386Z,1.6
2023-05-02T03:41:35.509Z,1.6
2023-05-02T03:42:42.095Z,1.7
2023-05-02T03:43:49.283Z,1.6
2023-05-02T03:44:56.300Z,1.6
2023-05-02T03:46:03.370Z,1.6
2023-05-02T03:47:10.522Z,1.6
2023-05-02T03:48:17.106Z,1.6
2023-05-02T03:49:24.266Z,1.6
2023-05-02T03:50:31.293Z,1.7
2023-05-02T03:51:38.401Z,1.6
2023-05-02T03:52:45.502Z,1.7
2023-05-02T03:53:52.210Z,1.7
2023-05-02T03:54:59.214Z,1.6
2023-05-02T03:56:06.296Z,1.6
2023-05-02T03:57:13.420Z,1.6
2023-05-02T03:58:20.506Z,1.6
2023-05-02T03:59:27.193Z,1.6
2023-05-02T04:00:34.171Z,1.6
2023-05-02T04:01:41.373Z,1.6
2023-05-02T04:02:48.590Z,1.6
2023-05-02T04:03:55.604Z,1.7
2023-05-02T04:05:02.258Z,1.7
2023-05-02T04:06:09.306Z,1.7
2023-05-02T04:07:16.372Z,1.6
2023-05-02T04:08:23.415Z,1.7
2023-05-02T04:09:30.542Z,1.7
2023-05-02T04:10:37.140Z,1.7
2023-05-02T04:11:44.241Z,1.7
2023-05-02T04:12:51.300Z,1.7
2023-05-02T04:13:58.481Z,1.7
2023-05-02T04:15:05.551Z,1.7
2023-05-02T04:16:12.201Z,1.7
2023-05-02T04:17:19.328Z,1.8
2023-05-02T04:18:26.391Z,1.8
2023-05-02T04:20:40.099Z,1.8
2023-05-02T04:21:47.182Z,1.8
2023-05-02T04:22:54.245Z,1.8
2023-05-02T04:24:01.378Z,1.8
2023-05-02T04:25:08.480Z,1.8
2023-05-02T04:26:15.070Z,1.7
2023-05-02T04:27:22.110Z,1.7
2023-05-02T04:28:29.257Z,1.7
2023-05-02T04:29:36.389Z,1.7
2023-05-02T04:30:43.441Z,1.7
2023-05-02T04:31:50.045Z,1.7
2023-05-02T04:32:57.212Z,1.7
2023-05-02T04:34:04.371Z,1.7
2023-05-02T04:35:11.379Z,1.7
2023-05-02T04:36:18.504Z,1.8
2023-05-02T04:37:25.049Z,1.8
2023-05-02T04:38:32.139Z,1.8
2023-05-02T04:39:39.274Z,1.8
2023-05-02T04:40:46.387Z,1.8
2023-05-02T04:41:53.509Z,1.9
2023-05-02T04:43:00.105Z,1.8
2023-05-02T04:44:07.203Z,1.9
2023-05-02T04:45:14.255Z,1.9
2023-05-02T04:47:28.509Z,1.8
2023-05-02T04:48:35.106Z,1.9
2023-05-02T04:49:42.176Z,1.9
2023-05-02T04:50:49.269Z,1.8
2023-05-02T04:51:56.424Z,1.8
2023-05-02T04:53:03.491Z,1.8
2023-05-02T04:54:10.139Z,1.8
2023-05-02T04:55:17.199Z,1.9
2023-05-02T04:56:24.252Z,1.9
2023-05-02T04:57:31.376Z,1.9
2023-05-02T04:58:38.541Z,1.9
2023-05-02T04:59:45.119Z,1.9
2023-05-02T05:00:52.151Z,1.9
2023-05-02T05:01:59.379Z,1.9
2023-05-02T05:03:06.547Z,1.9
2023-05-02T05:04:13.824Z,1.9
2023-05-02T05:05:20.140Z,1.9
2023-05-02T05:06:27.283Z,2
2023-05-02T05:07:34.286Z,2
2023-05-02T05:08:41.433Z,2
2023-05-02T05:09:48.531Z,2
2023-05-02T05:10:55.110Z,2
2023-05-02T05:12:02.256Z,2
2023-05-02T05:13:09.312Z,2
2023-05-02T05:14:16.444Z,2
2023-05-02T05:15:23.607Z,2
2023-05-02T05:16:30.200Z,2
2023-05-02T05:17:37.294Z,2.1
2023-05-02T05:18:44.330Z,2.1
2023-05-02T05:19:51.422Z,2
2023-05-02T05:20:58.558Z,2.1
2023-05-02T05:22:05.130Z,2.1
2023-05-02T05:24:19.423Z,2.2
2023-05-02T05:25:26.474Z,2.2
2023-05-02T05:26:33.592Z,2.3
2023-05-02T05:27:40.151Z,2.3
2023-05-02T05:28:47.219Z,2.3
2023-05-02T05:29:54.394Z,2.3
2023-05-02T05:31:01.430Z,2.3
2023-05-02T05:32:08.675Z,2.4
2023-05-02T05:33:15.246Z,2.4
2023-05-02T05:34:22.219Z,2.4
2023-05-02T05:35:29.389Z,2.5
2023-05-02T05:36:36.435Z,2.5
2023-05-02T05:37:43.543Z,2.5
2023-05-02T05:38:50.191Z,2.5
2023-05-02T05:39:57.590Z,2.5
2023-05-02T05:41:04.388Z,2.5
2023-05-02T05:42:11.420Z,2.6
2023-05-02T05:43:18.605Z,2.6
2023-05-02T05:44:25.170Z,2.6
2023-05-02T05:45:32.350Z,2.7
2023-05-02T05:46:39.490Z,2.7
2023-05-02T05:47:46.492Z,2.7
2023-05-02T05:48:53.537Z,2.8
2023-05-02T05:50:00.544Z,2.8
2023-05-02T05:51:07.264Z,2.9
2023-05-02T05:52:14.509Z,2.9
2023-05-02T05:53:21.497Z,2.8
2023-05-02T05:54:28.626Z,2.9
2023-05-02T05:55:37.273Z,2.9
2023-05-02T05:56:42.252Z,2.9
2023-05-02T05:57:49.446Z,3
2023-05-02T05:58:56.520Z,3.1
2023-05-02T06:00:03.820Z,3.1
2023-05-02T06:01:10.159Z,3.1
2023-05-02T06:02:17.299Z,3.1
2023-05-02T06:03:24.631Z,3.1
2023-05-02T06:04:31.521Z,3.2
2023-05-02T06:05:38.631Z,3.2
2023-05-02T06:06:45.222Z,3.2
2023-05-02T06:07:52.248Z,3.3
2023-05-02T06:08:59.437Z,3.3
2023-05-02T06:10:06.482Z,3.4
2023-05-02T06:11:13.583Z,3.5
2023-05-02T06:12:20.230Z,3.5
2023-05-02T06:13:27.311Z,3.5
2023-05-02T06:15:41.632Z,3.6
2023-05-02T06:16:48.702Z,3.7
2023-05-02T06:17:55.333Z,3.7
2023-05-02T06:19:02.314Z,3.7
2023-05-02T06:20:09.433Z,3.7
2023-05-02T06:21:16.507Z,3.8
2023-05-02T06:22:23.633Z,3.8
2023-05-02T06:23:30.240Z,3.9
2023-05-02T06:24:37.361Z,3.9
2023-05-02T06:25:44.427Z,3.9
2023-05-02T06:27:58.133Z,4
2023-05-02T06:29:05.293Z,4
2023-05-02T06:30:12.295Z,4.1
2023-05-02T06:31:19.457Z,4.1
2023-05-02T06:32:26.536Z,4.1
2023-05-02T06:33:33.109Z,4.2
2023-05-02T06:34:40.293Z,4.2
2023-05-02T06:35:47.350Z,4.3
2023-05-02T06:36:54.387Z,4.4
2023-05-02T06:38:01.509Z,4.5
2023-05-02T06:39:08.185Z,4.5
2023-05-02T06:40:15.298Z,4.5
2023-05-02T06:41:22.318Z,4.5
2023-05-02T06:42:29.440Z,4.6
2023-05-02T06:43:36.530Z,4.7
2023-05-02T06:44:43.176Z,4.7
2023-05-02T06:45:50.258Z,4.9
2023-05-02T06:46:57.398Z,5.1
2023-05-02T06:48:04.546Z,5.3
2023-05-02T06:49:11.574Z,5.5
2023-05-02T06:50:18.177Z,5.8
2023-05-02T06:51:25.230Z,6
2023-05-02T06:52:32.337Z,6.1
2023-05-02T06:53:39.418Z,6.1
2023-05-02T06:54:46.548Z,6.2
2023-05-02T06:55:53.112Z,6.3
2023-05-02T06:57:00.407Z,6.4
2023-05-02T06:58:07.355Z,6.6
2023-05-02T06:59:14.475Z,6.7
2023-05-02T07:00:21.573Z,6.8
2023-05-02T07:01:28.216Z,6.9
2023-05-02T07:02:35.307Z,7
2023-05-02T07:03:42.428Z,7.1
2023-05-02T07:04:49.450Z,7.2
2023-05-02T07:05:56.588Z,7.2
2023-05-02T07:07:03.189Z,7.3
2023-05-02T07:08:10.281Z,7.4
2023-05-02T07:09:17.432Z,7.5
2023-05-02T07:10:24.458Z,7.6
2023-05-02T07:11:31.569Z,7.7
2023-05-02T07:12:38.161Z,7.9
2023-05-02T07:13:45.301Z,8.1
2023-05-02T07:14:52.422Z,8.2
2023-05-02T07:15:59.505Z,8.4
2023-05-02T07:17:06.760Z,8.6
2023-05-02T07:18:13.249Z,8.8
2023-05-02T07:19:20.333Z,8.9
2023-05-02T07:20:27.425Z,9.1
2023-05-02T07:21:34.538Z,9.3
2023-05-02T07:22:41.557Z,9.6
2023-05-02T07:23:48.264Z,9.8
2023-05-02T07:24:55.318Z,9.9
2023-05-02T07:26:03.863Z,10
2023-05-02T07:27:09.518Z,10.2
2023-05-02T07:28:16.665Z,10.4
2023-05-02T07:29:23.169Z,10.5
2023-05-02T07:31:37.415Z,10.7
2023-05-02T07:32:44.504Z,10.8
2023-05-02T07:33:51.681Z,10.8
2023-05-02T07:34:58.243Z,10.8
2023-05-02T07:36:05.270Z,11
2023-05-02T07:37:12.419Z,11.1
2023-05-02T07:38:19.517Z,11.1
2023-05-02T07:39:26.113Z,11.2
2023-05-02T07:40:33.181Z,11.3
2023-05-02T07:41:40.321Z,11.4
2023-05-02T07:43:54.550Z,11.6
2023-05-02T07:45:01.606Z,11.7
2023-05-02T07:46:08.366Z,11.5
2023-05-02T07:47:15.361Z,11.5
2023-05-02T07:48:22.395Z,11.4
2023-05-02T07:49:30.064Z,11.5
2023-05-02T07:50:36.170Z,11.5
2023-05-02T07:51:43.214Z,11.5
2023-05-02T07:52:50.336Z,11.5
2023-05-02T07:53:57.519Z,11.6
2023-05-02T07:55:04.565Z,11.7
2023-05-02T07:56:11.114Z,11.5
2023-05-02T07:57:18.320Z,11.4
2023-05-02T07:58:25.352Z,11.4
2023-05-02T07:59:32.397Z,11.3
2023-05-02T08:00:39.699Z,11.3
2023-05-02T08:01:46.640Z,11.3
2023-05-02T08:02:53.373Z,11.3
2023-05-02T08:04:00.599Z,11.3
2023-05-02T08:05:07.765Z,11.1
2023-05-02T08:06:14.652Z,11.1
2023-05-02T08:07:21.099Z,11.2
2023-05-02T08:08:28.280Z,11.2
2023-05-02T08:09:35.390Z,11.3
2023-05-02T08:10:42.493Z,11.4
2023-05-02T08:11:49.586Z,11.4
2023-05-02T08:12:56.137Z,11.4
2023-05-02T08:14:03.311Z,11.4
2023-05-02T08:15:10.327Z,11.4
2023-05-02T08:16:17.504Z,11.5
2023-05-02T08:17:24.549Z,11.6
2023-05-02T08:18:31.144Z,11.7
2023-05-02T08:19:38.347Z,11.8
2023-05-02T08:20:45.365Z,11.9
2023-05-02T08:21:52.432Z,12
2023-05-02T08:23:00.381Z,12.1
2023-05-02T08:24:06.174Z,12.2
2023-05-02T08:25:13.274Z,12.4
2023-05-02T08:26:20.371Z,12.4
2023-05-02T08:27:27.503Z,12.4
2023-05-02T08:28:34.624Z,12.4
2023-05-02T08:29:41.221Z,12.4
2023-05-02T08:30:48.281Z,12.4
2023-05-02T08:35:16.223Z,12.4
2023-05-02T08:36:23.576Z,12.4
2023-05-02T08:37:30.463Z,12.5
2023-05-02T08:38:37.588Z,12.6
2023-05-02T08:39:44.658Z,12.6
2023-05-02T08:40:51.200Z,12.6
2023-05-02T08:41:58.298Z,12.6
2023-05-02T08:43:05.394Z,12.6
2023-05-02T08:44:12.506Z,12.7
2023-05-02T08:45:19.074Z,12.7
2023-05-02T08:46:26.225Z,12.7
2023-05-02T08:47:33.322Z,12.7
2023-05-02T08:49:47.544Z,12.9
2023-05-02T08:50:54.085Z,13
2023-05-02T08:52:01.174Z,13
2023-05-02T08:53:08.307Z,13
2023-05-02T08:54:15.404Z,13
2023-05-02T08:55:22.492Z,12.9
2023-05-02T08:56:29.098Z,12.8
2023-05-02T08:57:36.192Z,12.8
2023-05-02T08:58:43.282Z,12.7
2023-05-02T08:59:50.419Z,12.5
2023-05-02T09:00:57.548Z,12.5
2023-05-02T09:02:04.586Z,12.5
2023-05-02T09:03:11.204Z,12.6
2023-05-02T09:04:18.346Z,12.7
2023-05-02T09:05:25.417Z,12.8
2023-05-02T09:06:32.539Z,12.9
2023-05-02T09:07:39.110Z,13
2023-05-02T09:08:46.300Z,13.1
2023-05-02T09:09:53.332Z,13.3
2023-05-02T09:12:08.764Z,13.4
2023-05-02T09:13:14.080Z,13.4
2023-05-02T09:14:21.260Z,13.4
2023-05-02T09:15:28.330Z,13.4
2023-05-02T09:16:35.472Z,13.5
2023-05-02T09:17:42.575Z,13.6
2023-05-02T09:18:49.179Z,13.5
2023-05-02T09:19:56.274Z,13.5
2023-05-02T09:21:03.307Z,13.5
2023-05-02T09:22:10.401Z,13.6
2023-05-02T09:23:17.579Z,13.6
2023-05-02T09:24:24.145Z,13.4
2023-05-02T09:25:31.286Z,13.3
2023-05-02T09:26:38.355Z,13.2
2023-05-02T09:27:45.438Z,13
2023-05-02T09:28:52.522Z,12.9
2023-05-02T09:29:59.178Z,12.8
2023-05-02T09:31:06.236Z,12.8
2023-05-02T09:32:13.354Z,12.8
2023-05-02T09:33:20.420Z,12.8
2023-05-02T09:34:27.088Z,12.7
2023-05-02T09:35:34.118Z,12.7
2023-05-02T09:36:41.235Z,12.7
2023-05-02T09:38:55.468Z,12.7
2023-05-02T09:40:02.618Z,12.6
2023-05-02T09:41:09.166Z,12.6
2023-05-02T09:42:16.259Z,12.6
2023-05-02T09:43:23.345Z,12.6
2023-05-02T09:44:30.746Z,12.7
2023-05-02T09:45:37.055Z,12.8
2023-05-02T09:46:44.275Z,12.9
2023-05-02T09:47:51.289Z,13
2023-05-02T09:48:58.370Z,13
2023-05-02T09:50:05.488Z,13
2023-05-02T09:51:12.547Z,13.1
2023-05-02T09:52:19.156Z,13.1
2023-05-02T09:53:26.280Z,13.1
2023-05-02T09:54:33.431Z,13.2
2023-05-02T09:55:40.456Z,13.2
2023-05-02T09:56:47.071Z,13.2
2023-05-02T09:57:54.163Z,13.4
2023-05-02T09:59:01.247Z,13.4
2023-05-02T10:00:08.373Z,13.6
2023-05-02T10:01:15.537Z,13.7
2023-05-02T10:02:22.199Z,13.8
2023-05-02T10:03:29.184Z,13.9
2023-05-02T10:04:36.378Z,14
2023-05-02T10:05:43.363Z,14.1
2023-05-02T10:06:50.577Z,14.2
2023-05-02T10:07:57.049Z,14.3
2023-05-02T10:09:04.154Z,14.4
2023-05-02T10:10:11.259Z,14.4
2023-05-02T10:11:18.406Z,14.4
2023-05-02T10:12:25.512Z,14.4
2023-05-02T10:13:32.054Z,14.4
2023-05-02T10:14:39.268Z,14.3
2023-05-02T10:15:46.347Z,14.2
2023-05-02T10:16:53.381Z,14.2
2023-05-02T10:18:00.506Z,14.2
2023-05-02T10:19:07.105Z,14
2023-05-02T10:20:14.175Z,14
2023-05-02T10:21:21.294Z,14.1
2023-05-02T10:22:28.436Z,14.2
2023-05-02T10:23:35.530Z,14.2
2023-05-02T10:24:42.097Z,14.3
2023-05-02T10:25:49.185Z,14.3
2023-05-02T10:26:56.386Z,14.4
2023-05-02T10:28:03.475Z,14.4
2023-05-02T10:29:10.559Z,14.4
2023-05-02T10:30:17.217Z,14.4
2023-05-02T10:31:24.208Z,14.3
2023-05-02T10:32:31.338Z,14.3
2023-05-02T10:33:38.456Z,14.4
2023-05-02T10:34:45.511Z,14.4
2023-05-02T10:35:52.097Z,14.5
2023-05-02T10:36:59.232Z,14.5
2023-05-02T10:38:06.331Z,14.4
2023-05-02T10:40:20.602Z,14.5
2023-05-02T10:42:34.207Z,14.4
2023-05-02T10:43:41.328Z,14.4
2023-05-02T10:44:48.439Z,14.4
2023-05-02T10:45:55.059Z,14.4
2023-05-02T10:47:02.141Z,14.3
2023-05-02T10:48:09.299Z,14.3
2023-05-02T10:49:16.383Z,14.4
2023-05-02T10:50:23.428Z,14.4
2023-05-02T10:51:30.537Z,14.3
2023-05-02T10:52:37.141Z,14.3
2023-05-02T10:53:44.212Z,14.3
2023-05-02T10:54:51.321Z,14.2
2023-05-02T10:55:58.457Z,14
2023-05-02T10:57:05.053Z,14
2023-05-02T10:58:12.114Z,14.1
2023-05-02T10:59:19.253Z,14.1
2023-05-02T11:00:26.365Z,14
2023-05-02T11:01:33.668Z,14.1
2023-05-02T11:02:40.192Z,14
2023-05-02T11:03:47.166Z,14.1
2023-05-02T11:04:54.278Z,14.2
2023-05-02T11:06:01.405Z,14.1
2023-05-02T11:07:08.486Z,14.1
2023-05-02T11:08:15.076Z,14.1
2023-05-02T11:09:22.138Z,14.1
2023-05-02T11:10:29.311Z,14.1
2023-05-02T11:11:36.380Z,14.1
2023-05-02T11:12:43.463Z,14.1
2023-05-02T11:13:50.093Z,14.2
2023-05-02T11:14:57.248Z,14.2
2023-05-02T11:16:04.288Z,14.4
2023-05-02T11:17:11.367Z,14.4
2023-05-02T11:18:18.490Z,14.4
2023-05-02T11:19:25.117Z,14.4
2023-05-02T11:20:32.142Z,14.4
2023-05-02T11:21:39.292Z,14.4
2023-05-02T11:22:46.398Z,14.4
2023-05-02T11:23:53.466Z,14.4
2023-05-02T11:25:00.244Z,14.3
2023-05-02T11:26:07.195Z,14.2
2023-05-02T11:27:14.353Z,14.1
2023-05-02T11:28:21.365Z,14
2023-05-02T11:29:28.557Z,13.9
2023-05-02T11:30:35.069Z,13.8
2023-05-02T11:31:42.182Z,13.8
2023-05-02T11:32:49.462Z,13.6
2023-05-02T11:33:56.409Z,13.6
2023-05-02T11:35:03.475Z,13.4
2023-05-02T11:36:10.104Z,13.4
2023-05-02T11:37:17.209Z,13.3
2023-05-02T11:38:24.374Z,13.2
2023-05-02T11:39:31.427Z,13.1
2023-05-02T11:40:38.528Z,13
2023-05-02T11:41:45.118Z,13
2023-05-02T11:42:52.179Z,13
2023-05-02T11:43:59.316Z,12.9
2023-05-02T11:46:13.576Z,12.9
2023-05-02T11:47:20.134Z,12.9
2023-05-02T11:48:27.229Z,12.9
2023-05-02T11:49:34.294Z,12.7
2023-05-02T11:50:46.676Z,12.7
2023-05-02T11:51:48.528Z,12.7
2023-05-02T11:52:55.103Z,12.7
2023-05-02T11:54:02.200Z,12.6
2023-05-02T11:55:10.406Z,12.5
2023-05-02T11:56:16.437Z,12.5
2023-05-02T11:57:23.509Z,12.5
2023-05-02T11:58:30.306Z,12.5
2023-05-02T11:59:37.233Z,12.4
2023-05-02T12:00:44.316Z,12.4
2023-05-02T12:01:51.421Z,12.4
2023-05-02T12:02:58.679Z,12.4
2023-05-02T12:04:05.283Z,12.4
2023-05-02T12:05:12.324Z,12.4
2023-05-02T12:08:33.561Z,12.4
2023-05-02T12:09:40.198Z,12.4
2023-05-02T12:10:47.267Z,12.4
2023-05-02T12:11:54.321Z,12.3
2023-05-02T12:13:01.433Z,12.3
2023-05-02T12:14:08.569Z,12.3
2023-05-02T12:15:15.304Z,12.3
2023-05-02T12:16:22.270Z,12.3
2023-05-02T12:17:29.367Z,12.4
2023-05-02T12:18:36.472Z,12.4
2023-05-02T12:19:43.074Z,12.3
2023-05-02T12:20:50.172Z,12.2
2023-05-02T12:21:57.263Z,12.1
2023-05-02T12:23:04.359Z,12.1
2023-05-02T12:24:11.463Z,12
2023-05-02T12:25:18.106Z,12
2023-05-02T12:26:25.324Z,12
2023-05-02T12:27:32.254Z,11.9
2023-05-02T12:28:39.390Z,11.9
2023-05-02T12:29:46.457Z,11.9
2023-05-02T12:30:53.061Z,11.8
2023-05-02T12:32:00.468Z,11.8
2023-05-02T12:33:07.302Z,11.9
2023-05-02T12:34:14.353Z,11.9
2023-05-02T12:35:21.513Z,11.9
2023-05-02T12:36:28.087Z,11.8
2023-05-02T12:37:35.203Z,11.8
2023-05-02T12:38:42.257Z,11.8
2023-05-02T12:39:49.414Z,11.8
2023-05-02T12:40:56.497Z,11.8
2023-05-02T12:42:03.063Z,11.8
2023-05-02T12:43:10.217Z,11.9
2023-05-02T12:44:17.305Z,11.8
2023-05-02T12:45:24.439Z,11.8
2023-05-02T12:46:31.797Z,11.8
2023-05-02T12:47:38.121Z,11.9
2023-05-02T12:49:52.273Z,11.9
2023-05-02T12:50:59.489Z,11.8
2023-05-02T12:52:08.800Z,11.9
2023-05-02T12:53:13.085Z,11.9
2023-05-02T12:54:20.207Z,11.9
2023-05-02T12:55:27.322Z,11.9
2023-05-02T12:56:34.421Z,11.8
2023-05-02T12:57:41.494Z,11.8
2023-05-02T12:58:48.125Z,11.8
2023-05-02T12:59:55.261Z,11.9
2023-05-02T13:01:02.339Z,11.9
2023-05-02T13:02:09.421Z,11.8
2023-05-02T13:03:16.685Z,11.8
2023-05-02T13:04:23.141Z,11.9
2023-05-02T13:05:30.189Z,12
2023-05-02T13:06:37.450Z,12
2023-05-02T13:07:44.453Z,12
2023-05-02T13:08:51.532Z,12.1
2023-05-02T13:09:58.192Z,12.2
2023-05-02T13:11:05.245Z,12.2
2023-05-02T13:12:12.306Z,12.2
2023-05-02T13:13:19.441Z,12.4
2023-05-02T13:14:26.549Z,12.4
2023-05-02T13:15:33.098Z,12.5
2023-05-02T13:16:40.303Z,12.5
2023-05-02T13:17:47.423Z,12.5
2023-05-02T13:18:54.489Z,12.6
2023-05-02T13:20:02.441Z,12.7
2023-05-02T13:21:08.174Z,12.7
2023-05-02T13:22:15.246Z,12.7
2023-05-02T13:23:22.345Z,12.7
2023-05-02T13:24:29.452Z,12.7
2023-05-02T13:25:36.076Z,12.8
2023-05-02T13:26:43.101Z,12.7
2023-05-02T13:27:50.303Z,12.7
2023-05-02T13:28:57.362Z,12.7
2023-05-02T13:30:07.873Z,12.7
2023-05-02T13:31:11.029Z,12.7
2023-05-02T13:32:18.146Z,12.7
2023-05-02T13:33:25.261Z,12.7
2023-05-02T13:34:32.404Z,12.7
2023-05-02T13:36:46.392Z,12.7
2023-05-02T13:37:53.133Z,12.7
2023-05-02T13:39:00.263Z,12.6
2023-05-02T13:40:07.395Z,12.6
2023-05-02T13:41:14.445Z,12.7
2023-05-02T13:42:21.030Z,12.7
2023-05-02T13:43:28.155Z,12.7
2023-05-02T13:44:35.270Z,12.7
2023-05-02T13:45:42.366Z,12.7
2023-05-02T13:46:49.559Z,12.7
2023-05-02T13:47:56.096Z,12.7
2023-05-02T13:49:03.145Z,12.7
2023-05-02T13:50:10.306Z,12.7
2023-05-02T13:51:17.393Z,12.6
2023-05-02T13:53:31.053Z,12.4
2023-05-02T13:54:38.217Z,12.4
2023-05-02T13:55:45.294Z,12.4
2023-05-02T13:56:52.372Z,12.4
2023-05-02T13:57:59.523Z,12.4
2023-05-02T13:59:07.773Z,12.4
2023-05-02T14:00:13.207Z,12.5
2023-05-02T14:01:20.317Z,12.5
2023-05-02T14:02:27.464Z,12.6
2023-05-02T14:03:34.517Z,12.6
2023-05-02T14:04:41.216Z,12.6
2023-05-02T14:05:48.190Z,12.6
2023-05-02T14:06:55.331Z,12.6
2023-05-02T14:08:02.389Z,12.7
2023-05-02T14:09:09.511Z,12.7
2023-05-02T14:10:16.134Z,12.6
2023-05-02T14:11:23.176Z,12.7
2023-05-02T14:12:30.293Z,12.7
2023-05-02T14:13:37.439Z,12.7
2023-05-02T14:14:43.967Z,12.7
2023-05-02T14:15:51.169Z,12.8
2023-05-02T14:16:58.204Z,12.8
2023-05-02T14:18:05.354Z,12.8
2023-05-02T14:19:12.399Z,12.8
2023-05-02T14:20:19.032Z,12.8
2023-05-02T14:21:26.116Z,12.8
2023-05-02T14:22:33.216Z,12.7
2023-05-02T14:23:40.334Z,12.7
2023-05-02T14:24:47.476Z,12.7
2023-05-02T14:25:54.001Z,12.7
2023-05-02T14:27:01.103Z,12.7
2023-05-02T14:28:08.216Z,12.7
2023-05-02T14:29:15.353Z,12.8
2023-05-02T14:30:22.434Z,12.7
2023-05-02T14:31:29.086Z,12.7
2023-05-02T14:32:36.193Z,12.8
2023-05-02T14:33:43.219Z,12.8
2023-05-02T14:34:50.314Z,12.7
2023-05-02T14:35:57.444Z,12.7
2023-05-02T14:37:03.995Z,12.7
2023-05-02T14:38:11.114Z,12.7
2023-05-02T14:39:18.242Z,12.7
2023-05-02T14:40:25.397Z,12.7
2023-05-02T14:41:32.429Z,12.7
2023-05-02T14:42:39.036Z,12.7
2023-05-02T14:43:46.149Z,12.7
2023-05-02T14:44:53.210Z,12.6
2023-05-02T14:46:00.326Z,12.6
2023-05-02T14:47:07.628Z,12.6
2023-05-02T14:48:14.157Z,12.6
2023-05-02T14:49:21.113Z,12.6
2023-05-02T14:50:28.285Z,12.6
2023-05-02T14:51:35.334Z,12.5
2023-05-02T14:52:42.499Z,12.5
2023-05-02T14:53:49.062Z,12.5
2023-05-02T14:54:56.210Z,12.5
2023-05-02T14:57:10.341Z,12.5
2023-05-02T14:58:17.478Z,12.5
2023-05-02T14:59:24.069Z,12.5
2023-05-02T15:00:31.198Z,12.6
2023-05-02T15:01:38.430Z,12.6
2023-05-02T15:02:45.465Z,12.5
2023-05-02T15:04:59.073Z,12.6
2023-05-02T15:06:06.249Z,12.6
2023-05-02T15:07:13.275Z,12.6
2023-05-02T15:08:20.362Z,12.7
2023-05-02T15:09:26.992Z,12.7
2023-05-02T15:10:34.041Z,12.7
2023-05-02T15:11:41.161Z,12.6
2023-05-02T15:12:48.284Z,12.7
2023-05-02T15:13:57.505Z,12.6
2023-05-02T15:15:02.007Z,12.7
2023-05-02T15:16:09.152Z,12.6
2023-05-02T15:17:16.182Z,12.6
2023-05-02T15:18:23.327Z,12.6
2023-05-02T15:19:30.376Z,12.6
2023-05-02T15:20:37.508Z,12.6
2023-05-02T15:21:44.066Z,12.6
2023-05-02T15:22:51.168Z,12.5
2023-05-02T15:23:58.311Z,12.5
2023-05-02T15:25:05.571Z,12.5
2023-05-02T15:26:12.506Z,12.6
2023-05-02T15:27:19.179Z,12.6
2023-05-02T15:28:26.213Z,12.6
2023-05-02T15:29:33.409Z,12.6
2023-05-02T15:30:40.439Z,12.6
2023-05-02T15:31:47.564Z,12.6
2023-05-02T15:32:54.141Z,12.6
2023-05-02T15:34:01.184Z,12.7
2023-05-02T15:35:08.311Z,12.7
2023-05-02T15:36:15.434Z,12.7
2023-05-02T15:37:21.974Z,12.7
2023-05-02T15:38:29.147Z,12.7
2023-05-02T15:39:36.234Z,12.8
2023-05-02T15:40:43.295Z,12.8